createdAt,value
2018-07-26T00:00:53.590Z,71.42
2018-07-26T00:01:53.576Z,71.42
2018-07-26T00:02:53.567Z,71.91
2018-07-26T00:03:53.560Z,72.39
2018-07-26T00:04:53.561Z,72.97
2018-07-26T00:05:53.539Z,72.39
2018-07-26T00:06:53.526Z,71.91
2018-07-26T00:07:53.516Z,72.78
2018-07-26T00:08:53.507Z,72.30
2018-07-26T00:09:53.496Z,72.49
2018-07-26T00:10:53.490Z,72.97
2018-07-26T00:11:53.478Z,72.58
2018-07-26T00:12:53.468Z,72.78
2018-07-26T00:13:53.457Z,73.07
2018-07-26T00:14:53.447Z,74.10
2018-07-26T00:15:53.439Z,73.71
2018-07-26T00:16:53.428Z,73.71
2018-07-26T00:17:53.413Z,73.52
2018-07-26T00:18:53.405Z,72.74
2018-07-26T00:19:53.397Z,73.22
2018-07-26T00:20:53.387Z,74.77
2018-07-26T00:21:53.379Z,74.10
2018-07-26T00:22:53.366Z,74.38
2018-07-26T00:23:53.356Z,74.10
2018-07-26T00:24:53.347Z,74.19
2018-07-26T00:25:53.336Z,74.19
2018-07-26T00:26:53.337Z,74.19
2018-07-26T00:27:53.315Z,74.58
2018-07-26T00:28:53.305Z,74.10
2018-07-26T00:29:53.294Z,74.77
2018-07-26T00:30:53.285Z,74.48
2018-07-26T00:31:53.276Z,74.19
2018-07-26T00:32:53.266Z,74.10
2018-07-26T00:33:53.254Z,74.10
2018-07-26T00:34:53.244Z,74.19
2018-07-26T00:35:53.235Z,74.19
2018-07-26T00:36:53.222Z,74.48
2018-07-26T00:37:53.210Z,74.29
2018-07-26T00:38:53.202Z,74.77
2018-07-26T00:39:53.191Z,75.06
2018-07-26T00:40:53.183Z,74.87
2018-07-26T00:41:53.172Z,74.35
2018-07-26T00:42:53.161Z,75.41
2018-07-26T00:43:53.153Z,75.31
2018-07-26T00:44:53.140Z,75.60
2018-07-26T00:45:53.130Z,75.12
2018-07-26T00:46:53.120Z,75.60
2018-07-26T00:47:53.108Z,75.02
2018-07-26T00:48:53.145Z,75.31
2018-07-26T00:49:53.091Z,75.41
2018-07-26T00:50:53.078Z,74.93
2018-07-26T00:51:53.073Z,75.51
2018-07-26T00:52:53.058Z,75.12
2018-07-26T00:53:53.048Z,75.02
2018-07-26T00:54:53.036Z,76.09
2018-07-26T00:55:53.030Z,75.51
2018-07-26T00:56:53.016Z,75.60
2018-07-26T00:57:53.004Z,75.70
2018-07-26T00:58:52.996Z,75.60
2018-07-26T00:59:52.987Z,76.09
2018-07-26T01:00:52.974Z,75.41
2018-07-26T01:01:52.964Z,75.31
2018-07-26T01:02:52.954Z,76.43
2018-07-26T01:03:52.945Z,76.63
2018-07-26T01:04:52.932Z,76.05
2018-07-26T01:05:52.919Z,76.72
2018-07-26T01:06:52.910Z,76.82
2018-07-26T01:07:52.900Z,76.82
2018-07-26T01:08:52.891Z,77.30
2018-07-26T01:09:52.878Z,77.21
2018-07-26T01:10:52.868Z,77.01
2018-07-26T01:11:52.857Z,77.21
2018-07-26T01:12:52.849Z,77.21
2018-07-26T01:13:52.836Z,76.82
2018-07-26T01:14:52.825Z,76.92
2018-07-26T01:15:52.816Z,77.11
2018-07-26T01:16:52.805Z,77.78
2018-07-26T01:17:52.792Z,77.21
2018-07-26T01:18:52.785Z,77.21
2018-07-26T01:19:52.772Z,76.63
2018-07-26T01:20:52.760Z,76.72
2018-07-26T01:21:52.749Z,77.69
2018-07-26T01:22:52.739Z,77.69
2018-07-26T01:24:35.262Z,76.68
2018-07-26T01:25:35.248Z,76.53
2018-07-26T01:26:35.241Z,76.72
2018-07-26T01:27:35.229Z,76.63
2018-07-26T01:28:35.222Z,77.17
2018-07-26T01:29:35.210Z,77.50
2018-07-26T01:30:35.199Z,78.13
2018-07-26T01:31:35.183Z,77.26
2018-07-26T01:32:35.172Z,78.61
2018-07-26T01:33:35.162Z,77.75
2018-07-26T01:34:35.150Z,78.42
2018-07-26T01:35:35.140Z,78.61
2018-07-26T01:36:35.127Z,78.33
2018-07-26T01:37:35.118Z,77.75
2018-07-26T01:38:35.111Z,78.81
2018-07-26T01:39:35.100Z,78.58
2018-07-26T01:40:35.089Z,78.71
2018-07-26T01:41:35.075Z,78.23
2018-07-26T01:42:35.068Z,79.00
2018-07-26T01:43:35.052Z,79.16
2018-07-26T01:44:35.040Z,78.96
2018-07-26T01:45:35.030Z,79.93
2018-07-26T01:46:35.021Z,79.35
2018-07-26T01:47:35.008Z,78.29
2018-07-26T01:48:34.998Z,78.77
2018-07-26T01:49:34.988Z,78.48
2018-07-26T01:50:34.976Z,78.67
2018-07-26T01:51:34.964Z,79.16
2018-07-26T01:52:34.951Z,78.86
2018-07-26T01:53:34.941Z,79.83
2018-07-26T01:54:34.929Z,80.02
2018-07-26T01:55:34.919Z,78.96
2018-07-26T01:56:34.907Z,79.06
2018-07-26T01:57:34.898Z,79.74
2018-07-26T01:58:34.887Z,80.22
2018-07-26T01:59:34.877Z,80.51
2018-07-26T02:00:34.865Z,80.37
2018-07-26T02:01:34.904Z,80.66
2018-07-26T02:02:34.840Z,80.85
2018-07-26T02:03:34.828Z,80.66
2018-07-26T02:04:34.821Z,81.91
2018-07-26T02:05:34.813Z,82.20
2018-07-26T02:06:34.801Z,82.20
2018-07-26T02:07:34.785Z,82.59
2018-07-26T02:08:34.773Z,82.01
2018-07-26T02:09:34.768Z,81.62
2018-07-26T02:10:34.753Z,82.20
2018-07-26T02:11:34.740Z,82.45
2018-07-26T02:12:34.729Z,82.29
2018-07-26T02:13:34.721Z,82.26
2018-07-26T02:14:34.709Z,82.16
2018-07-26T02:15:34.695Z,81.48
2018-07-26T02:16:34.682Z,81.87
2018-07-26T02:17:34.671Z,81.24
2018-07-26T02:18:34.659Z,81.48
2018-07-26T02:19:34.653Z,81.48
2018-07-26T02:20:34.641Z,82.35
2018-07-26T02:21:34.627Z,82.54
2018-07-26T02:22:34.615Z,83.12
2018-07-26T02:23:34.605Z,83.03
2018-07-26T02:24:34.594Z,82.54
2018-07-26T02:25:34.583Z,84.18
2018-07-26T02:26:34.570Z,83.47
2018-07-26T02:27:34.554Z,83.56
2018-07-26T02:28:34.547Z,83.85
2018-07-26T02:29:34.533Z,83.85
2018-07-26T02:30:34.521Z,83.56
2018-07-26T02:31:34.517Z,83.47
2018-07-26T02:32:34.502Z,84.81
2018-07-26T02:33:34.489Z,84.43
2018-07-26T02:34:34.477Z,85.30
2018-07-26T02:35:34.463Z,84.53
2018-07-26T02:36:34.450Z,84.33
2018-07-26T02:37:34.451Z,85.16
2018-07-26T02:38:34.425Z,85.00
2018-07-26T02:39:34.435Z,85.25
2018-07-26T02:40:34.408Z,85.16
2018-07-26T02:41:34.392Z,85.54
2018-07-26T02:42:34.382Z,85.06
2018-07-26T02:43:34.375Z,86.41
2018-07-26T02:44:34.360Z,84.58
2018-07-26T02:45:34.395Z,85.25
2018-07-26T02:46:34.334Z,85.44
2018-07-26T02:47:34.321Z,85.35
2018-07-26T02:48:34.308Z,85.16
2018-07-26T02:49:34.305Z,85.93
2018-07-26T02:50:34.287Z,85.44
2018-07-26T02:51:34.279Z,85.35
2018-07-26T02:52:34.265Z,85.93
2018-07-26T02:53:34.271Z,86.41
2018-07-26T02:54:34.440Z,85.93
2018-07-26T02:55:34.226Z,86.02
2018-07-26T02:56:34.215Z,85.64
2018-07-26T02:57:34.203Z,85.35
2018-07-26T02:58:34.211Z,86.31
2018-07-26T03:00:17.922Z,85.16
2018-07-26T03:01:16.920Z,86.31
2018-07-26T03:03:54.310Z,86.41
2018-07-26T03:04:54.498Z,85.25
2018-07-26T03:05:54.284Z,86.22
2018-07-26T03:06:54.596Z,86.26
2018-07-26T03:07:54.266Z,85.49
2018-07-26T03:08:54.251Z,85.39
2018-07-26T03:09:54.237Z,85.58
2018-07-26T03:13:30.046Z,85.87
2018-07-26T03:14:30.035Z,86.07
2018-07-26T03:15:30.018Z,86.65
2018-07-26T03:16:30.006Z,85.97
2018-07-26T03:17:30.007Z,86.45
2018-07-26T03:18:29.982Z,86.83
2018-07-26T03:19:29.970Z,87.22
2018-07-26T03:20:29.974Z,86.93
2018-07-26T03:21:29.964Z,86.93
2018-07-26T03:22:29.934Z,87.56
2018-07-26T03:23:29.926Z,87.76
2018-07-26T03:24:29.911Z,87.46
2018-07-26T03:25:29.895Z,88.24
2018-07-26T03:26:29.885Z,87.76
2018-07-26T03:27:29.877Z,87.76
2018-07-26T03:28:29.862Z,88.53
2018-07-26T03:29:29.847Z,87.95
2018-07-26T03:30:29.836Z,88.53
2018-07-26T03:31:29.837Z,88.43
2018-07-26T03:32:29.820Z,88.04
2018-07-26T03:33:29.801Z,88.28
2018-07-26T03:34:29.791Z,87.80
2018-07-26T03:36:22.727Z,86.93
2018-07-26T08:10:16.830Z,43.03
2018-07-26T08:11:16.844Z,41.96
2018-07-26T08:12:16.823Z,40.19
2018-07-26T08:13:16.814Z,41.30
2018-07-26T08:14:16.810Z,40.11
2018-07-26T08:15:16.804Z,40.92
2018-07-26T08:16:16.800Z,39.64
2018-07-26T08:17:16.802Z,38.95
2018-07-26T08:18:16.791Z,37.88
2018-07-26T08:19:16.790Z,38.56
2018-07-26T08:20:16.781Z,39.73
2018-07-26T08:21:16.790Z,39.65
2018-07-26T08:22:16.776Z,37.96
2018-07-26T08:23:16.775Z,38.28
2018-07-26T08:24:16.768Z,37.98
2018-07-26T08:25:16.765Z,39.60
2018-07-26T08:26:16.762Z,38.96
2018-07-26T08:27:16.757Z,37.49
2018-07-26T08:28:16.762Z,36.82
2018-07-26T08:29:16.767Z,35.47
2018-07-26T08:30:16.749Z,34.18
2018-07-26T08:31:16.749Z,34.20
2018-07-26T08:32:16.744Z,32.60
2018-07-26T08:33:16.744Z,33.77
2018-07-26T08:34:16.740Z,34.95
2018-07-26T08:35:16.739Z,35.85
2018-07-26T08:36:16.736Z,34.36
2018-07-26T08:37:16.736Z,34.84
2018-07-26T08:38:16.735Z,34.31
2018-07-26T08:39:16.734Z,35.49
2018-07-26T08:40:16.728Z,36.18
2018-07-26T08:41:16.730Z,35.09
2018-07-26T08:42:16.727Z,36.59
2018-07-26T08:43:16.724Z,35.12
2018-07-26T08:44:16.727Z,34.13
2018-07-26T08:45:16.721Z,34.63
2018-07-26T08:46:16.722Z,33.85
2018-07-26T08:47:16.716Z,34.06
2018-07-26T08:48:16.745Z,35.35
2018-07-26T08:49:16.719Z,35.16
2018-07-26T08:50:16.715Z,33.65
2018-07-26T08:51:16.718Z,34.43
2018-07-26T08:52:16.779Z,33.44
2018-07-26T08:53:16.711Z,34.71
2018-07-26T08:54:16.772Z,35.50
2018-07-26T08:55:16.712Z,35.40
2018-07-26T08:56:16.715Z,34.88
2018-07-26T08:57:16.709Z,36.37
2018-07-26T08:58:16.712Z,34.89
2018-07-26T08:59:16.708Z,34.71
2018-07-26T09:00:16.709Z,34.34
2018-07-26T09:01:16.723Z,34.03
2018-07-26T09:02:16.711Z,34.20
2018-07-26T09:03:16.710Z,35.66
2018-07-26T09:04:16.705Z,35.37
2018-07-26T09:05:16.706Z,37.45
2018-07-26T09:06:16.705Z,37.62
2018-07-26T09:07:16.709Z,37.72
2018-07-26T09:08:16.705Z,37.49
2018-07-26T09:09:16.701Z,39.44
2018-07-26T09:10:16.701Z,40.51
2018-07-26T09:11:16.730Z,38.91
2018-07-26T09:12:16.701Z,39.97
2018-07-26T09:13:16.700Z,39.18
2018-07-26T09:14:16.702Z,39.05
2018-07-26T09:15:16.699Z,41.61
2018-07-26T09:16:16.695Z,41.17
2018-07-26T09:17:16.820Z,43.53
2018-07-26T09:18:16.693Z,44.32
2018-07-26T09:19:16.691Z,41.84
2018-07-26T09:26:17.629Z,44.18
2018-07-26T09:27:17.406Z,45.38
2018-07-26T09:33:16.925Z,44.10
2018-07-26T09:34:16.875Z,43.41
2018-07-26T09:35:17.011Z,45.36
2018-07-26T09:36:16.867Z,44.08
2018-07-26T09:37:16.867Z,43.98
2018-07-26T09:38:16.650Z,44.87
2018-07-26T09:40:17.392Z,42.58
2018-07-26T09:41:16.720Z,43.29
2018-07-26T09:42:16.636Z,43.66
2018-07-26T09:43:16.639Z,44.94
2018-07-26T09:44:16.637Z,43.76
2018-07-26T09:45:16.630Z,40.92
2018-07-26T09:46:16.626Z,40.72
2018-07-26T09:47:16.646Z,39.53
2018-07-26T09:48:16.621Z,41.19
2018-07-26T09:49:16.614Z,43.74
2018-07-26T09:50:16.614Z,44.43
2018-07-26T09:51:16.614Z,43.65
2018-07-26T09:52:16.607Z,44.06
2018-07-26T09:53:16.719Z,43.47
2018-07-26T09:54:16.606Z,42.00
2018-07-26T09:55:16.644Z,38.46
2018-07-26T09:56:16.621Z,39.84
2018-07-26T09:57:16.882Z,41.71
2018-07-26T09:58:16.866Z,42.21
2018-07-26T09:59:16.795Z,41.14
2018-07-26T10:00:16.669Z,39.76
2018-07-26T10:01:16.575Z,38.39
2018-07-26T10:02:16.573Z,39.95
2018-07-26T10:03:16.570Z,41.03
2018-07-26T10:04:16.573Z,41.24
2018-07-26T10:05:16.559Z,42.11
2018-07-26T10:06:16.559Z,42.71
2018-07-26T10:07:16.553Z,41.72
2018-07-26T10:08:16.548Z,40.06
2018-07-26T10:09:16.545Z,39.66
2018-07-26T10:10:16.542Z,39.94
2018-07-26T10:11:16.548Z,39.74
2018-07-26T10:12:16.547Z,40.72
2018-07-26T10:13:16.533Z,40.72
2018-07-26T10:14:16.530Z,42.00
2018-07-26T10:15:16.524Z,44.33
2018-07-26T10:16:16.518Z,44.26
2018-07-26T10:17:16.513Z,44.45
2018-07-26T10:18:16.510Z,42.88
2018-07-26T10:19:16.509Z,41.80
2018-07-26T10:20:16.580Z,42.79
2018-07-26T10:21:16.502Z,43.47
2018-07-26T10:22:16.497Z,41.33
2018-07-26T10:23:16.493Z,40.92
2018-07-26T10:24:16.489Z,42.19
2018-07-26T10:25:16.484Z,40.43
2018-07-26T10:26:16.479Z,42.29
2018-07-26T10:27:16.479Z,42.49
2018-07-26T10:28:16.471Z,41.61
2018-07-26T10:29:16.468Z,40.63
2018-07-26T10:30:16.464Z,42.88
2018-07-26T10:31:16.460Z,43.76
2018-07-26T10:32:16.455Z,41.80
2018-07-26T10:33:16.452Z,41.24
2018-07-26T10:34:16.448Z,40.84
2018-07-26T10:35:16.446Z,40.35
2018-07-26T10:36:16.448Z,38.29
2018-07-26T10:37:16.437Z,38.78
2018-07-26T10:38:16.434Z,39.95
2018-07-26T10:39:16.428Z,37.30
2018-07-26T10:40:16.425Z,37.70
2018-07-26T10:41:16.422Z,35.64
2018-07-26T10:42:16.415Z,37.30
2018-07-26T10:43:16.413Z,33.87
2018-07-26T10:44:16.408Z,35.74
2018-07-26T10:45:16.407Z,35.14
2018-07-26T10:46:16.399Z,35.55
2018-07-26T10:47:16.396Z,37.23
2018-07-26T10:48:16.392Z,37.23
2018-07-26T10:49:16.390Z,38.80
2018-07-26T10:50:16.384Z,36.54
2018-07-26T10:51:16.380Z,36.74
2018-07-26T10:52:16.374Z,37.03
2018-07-26T10:53:16.373Z,37.44
2018-07-26T10:54:16.367Z,37.34
2018-07-26T10:55:16.364Z,36.16
2018-07-26T10:56:16.360Z,37.24
2018-07-26T10:57:16.357Z,38.52
2018-07-26T10:58:16.366Z,37.44
2018-07-26T10:59:16.353Z,34.89
2018-07-26T11:00:16.363Z,36.46
2018-07-26T11:01:16.340Z,37.24
2018-07-26T11:02:16.339Z,38.23
2018-07-26T11:03:16.334Z,36.07
2018-07-26T11:04:16.326Z,36.36
2018-07-26T11:05:16.323Z,36.26
2018-07-26T11:06:16.320Z,35.67
2018-07-26T11:07:16.316Z,35.38
2018-07-26T11:08:16.310Z,35.87
2018-07-26T11:09:16.306Z,36.05
2018-07-26T11:10:16.302Z,36.95
2018-07-26T11:11:16.302Z,36.05
2018-07-26T11:12:16.298Z,35.55
2018-07-26T11:13:16.289Z,35.95
2018-07-26T11:14:16.285Z,38.11
2018-07-26T11:15:16.294Z,36.65
2018-07-26T11:16:16.280Z,35.47
2018-07-26T11:17:16.273Z,36.16
2018-07-26T11:18:16.271Z,36.65
2018-07-26T11:19:16.266Z,34.77
2018-07-26T11:20:16.263Z,37.13
2018-07-26T11:21:16.257Z,35.16
2018-07-26T11:22:16.253Z,36.63
2018-07-26T11:23:16.254Z,36.93
2018-07-26T11:24:16.282Z,36.63
2018-07-26T11:25:16.239Z,34.38
2018-07-26T11:26:16.237Z,36.54
2018-07-26T11:27:16.237Z,35.57
2018-07-26T11:28:16.228Z,33.41
2018-07-26T11:29:16.226Z,34.99
2018-07-26T11:30:16.221Z,34.78
2018-07-26T11:31:16.221Z,36.67
2018-07-26T11:32:16.264Z,37.36
2018-07-26T11:33:16.209Z,35.49
2018-07-26T11:34:16.205Z,34.22
2018-07-26T11:35:16.201Z,34.31
2018-07-26T11:36:16.197Z,35.78
2018-07-26T11:37:16.192Z,31.95
2018-07-26T11:38:16.193Z,34.90
2018-07-26T11:39:16.185Z,34.61
2018-07-26T11:40:16.179Z,34.31
2018-07-26T11:41:16.220Z,36.18
2018-07-26T11:42:16.178Z,34.01
2018-07-26T11:43:16.172Z,36.57
2018-07-26T11:44:16.162Z,35.80
2018-07-26T11:45:16.164Z,35.41
2018-07-26T11:46:16.158Z,34.33
2018-07-26T11:47:16.151Z,34.03
2018-07-26T11:48:16.149Z,31.57
2018-07-26T11:49:16.142Z,33.34
2018-07-26T11:50:16.143Z,33.94
2018-07-26T11:51:16.136Z,33.94
2018-07-26T11:52:16.131Z,33.94
2018-07-26T11:53:16.127Z,34.34
2018-07-26T11:54:16.123Z,32.77
2018-07-26T11:55:16.119Z,32.77
2018-07-26T11:56:16.116Z,32.77
2018-07-26T11:57:16.114Z,34.15
2018-07-26T11:58:16.112Z,33.95
2018-07-26T11:59:16.105Z,34.64
2018-07-26T12:00:16.100Z,33.95
2018-07-26T12:01:16.097Z,33.58
2018-07-26T12:02:16.093Z,33.77
2018-07-26T12:03:16.089Z,32.00
2018-07-26T12:04:16.084Z,31.03
2018-07-26T12:05:16.081Z,31.72
2018-07-26T12:06:16.076Z,30.75
2018-07-26T12:07:16.073Z,30.27
2018-07-26T12:08:16.111Z,30.19
2018-07-26T12:09:16.069Z,29.10
2018-07-26T12:10:16.062Z,28.93
2018-07-26T12:11:16.059Z,30.73
2018-07-26T12:12:16.058Z,30.33
2018-07-26T12:13:16.052Z,27.97
2018-07-26T12:14:16.097Z,28.28
2018-07-26T12:15:16.048Z,28.38
2018-07-26T12:16:16.044Z,28.30
2018-07-26T12:17:16.040Z,27.22
2018-07-26T12:18:16.035Z,28.42
2018-07-26T12:19:16.034Z,30.21
2018-07-26T12:20:16.033Z,27.04
2018-07-26T12:21:16.040Z,26.95
2018-07-26T12:22:16.024Z,26.86
2018-07-26T12:23:16.026Z,25.29
2018-07-26T12:24:16.021Z,27.28
2018-07-26T12:25:16.019Z,26.29
2018-07-26T12:26:16.020Z,23.11
2018-07-26T12:27:16.014Z,24.60
2018-07-26T12:28:16.016Z,24.60
2018-07-26T12:29:16.009Z,24.69
2018-07-26T12:30:16.009Z,25.68
2018-07-26T12:31:16.008Z,24.60
2018-07-26T12:32:16.004Z,25.29
2018-07-26T12:33:16.002Z,26.69
2018-07-26T12:34:16.006Z,24.31
2018-07-26T12:35:16.002Z,25.90
2018-07-26T12:36:15.998Z,24.21
2018-07-26T12:37:15.999Z,25.61
2018-07-26T12:38:15.995Z,24.22
2018-07-26T12:39:15.995Z,25.61
2018-07-26T12:40:15.993Z,24.80
2018-07-26T12:41:15.992Z,26.21
2018-07-26T12:42:15.990Z,25.31
2018-07-26T12:43:15.998Z,23.22
2018-07-26T12:44:15.987Z,22.91
2018-07-26T12:45:15.985Z,24.58
2018-07-26T12:46:15.985Z,25.59
2018-07-26T12:47:15.983Z,27.47
2018-07-26T12:48:15.984Z,25.89
2018-07-26T12:49:15.979Z,25.98
2018-07-26T12:50:15.979Z,29.46
2018-07-26T12:51:15.977Z,27.66
2018-07-26T12:52:15.974Z,26.27
2018-07-26T12:53:15.975Z,25.07
2018-07-26T12:54:15.974Z,25.85
2018-07-26T12:55:15.971Z,26.84
2018-07-26T12:56:15.968Z,26.02
2018-07-26T12:57:15.967Z,28.69
2018-07-26T12:58:15.967Z,26.02
2018-07-26T12:59:15.963Z,27.98
2018-07-26T13:00:15.963Z,29.07
2018-07-26T13:01:15.960Z,27.19
2018-07-26T13:02:15.960Z,27.50
2018-07-26T13:03:15.958Z,28.39
2018-07-26T13:04:15.955Z,28.30
2018-07-26T13:05:15.956Z,28.89
2018-07-26T13:06:15.952Z,27.42
2018-07-26T13:07:16.076Z,25.44
2018-07-26T13:08:15.951Z,27.51
2018-07-26T13:09:15.952Z,29.41
2018-07-26T13:10:15.946Z,30.40
2018-07-26T13:11:15.946Z,29.71
2018-07-26T13:12:15.967Z,25.95
2018-07-26T13:13:15.945Z,27.03
2018-07-26T13:14:15.942Z,25.24
2018-07-26T13:15:15.939Z,27.50
2018-07-26T13:16:15.940Z,28.00
2018-07-26T13:17:15.936Z,25.51
2018-07-26T13:18:15.956Z,26.19
2018-07-26T13:19:15.932Z,28.27
2018-07-26T13:20:15.929Z,27.58
2018-07-26T13:21:15.927Z,26.97
2018-07-26T13:22:15.927Z,27.36
2018-07-26T13:23:15.925Z,27.47
2018-07-26T13:24:15.922Z,26.17
2018-07-26T13:25:15.924Z,27.64
2018-07-26T13:26:15.923Z,30.79
2018-07-26T13:27:15.960Z,29.03
2018-07-26T13:28:15.917Z,30.99
2018-07-26T13:29:15.916Z,30.91
2018-07-26T13:30:15.914Z,30.51
2018-07-26T13:31:15.909Z,30.60
2018-07-26T13:32:15.905Z,29.61
2018-07-26T13:33:15.905Z,30.02
2018-07-26T13:34:15.956Z,29.62
2018-07-26T13:35:15.903Z,29.03
2018-07-26T13:36:15.894Z,28.83
2018-07-26T13:37:15.893Z,31.38
2018-07-26T13:38:15.890Z,30.50
2018-07-26T13:39:15.888Z,30.41
2018-07-26T13:40:15.915Z,27.55
2018-07-26T13:41:15.883Z,30.69
2018-07-26T13:42:15.881Z,27.93
2018-07-26T13:43:15.876Z,29.33
2018-07-26T13:44:15.882Z,28.53
2018-07-26T13:45:15.870Z,28.62
2018-07-26T13:46:15.929Z,27.13
2018-07-26T13:47:15.865Z,27.03
2018-07-26T13:48:15.867Z,28.10
2018-07-26T13:49:15.867Z,29.09
2018-07-26T13:50:15.856Z,29.28
2018-07-26T13:51:15.855Z,28.02
2018-07-26T13:52:15.859Z,28.02
2018-07-26T13:53:15.848Z,28.79
2018-07-26T13:54:15.847Z,28.69
2018-07-26T13:55:15.844Z,30.37
2018-07-26T13:56:15.841Z,28.99
2018-07-26T13:57:15.838Z,31.24
2018-07-26T13:58:15.834Z,29.86
2018-07-26T13:59:15.832Z,28.86
2018-07-26T14:00:15.837Z,30.06
2018-07-26T14:01:15.842Z,30.65
2018-07-26T14:02:15.940Z,30.94
2018-07-26T14:03:15.818Z,29.37
2018-07-26T14:04:15.893Z,30.37
2018-07-26T14:05:15.813Z,30.27
2018-07-26T14:06:15.810Z,29.28
2018-07-26T14:07:15.808Z,29.19
2018-07-26T14:08:15.913Z,31.44
2018-07-26T14:09:15.928Z,28.59
2018-07-26T14:10:16.290Z,26.70
2018-07-26T14:11:15.799Z,29.94
2018-07-26T14:12:15.809Z,29.34
2018-07-26T14:13:15.790Z,29.14
2018-07-26T14:14:15.787Z,28.95
2018-07-26T14:15:15.932Z,28.85
2018-07-26T14:16:15.780Z,27.75
2018-07-26T14:17:15.905Z,27.95
2018-07-26T14:18:15.775Z,27.06
2018-07-26T14:53:28.083Z,33.44
2018-07-26T14:54:28.035Z,33.44
2018-07-26T14:55:28.023Z,33.65
2018-07-26T14:56:28.034Z,34.43
2018-07-26T14:57:28.016Z,32.08
2018-07-26T14:58:28.015Z,31.98
2018-07-26T14:59:28.009Z,32.38
2018-07-26T15:00:28.021Z,33.26
2018-07-26T15:01:28.005Z,31.39
2018-07-26T15:02:28.003Z,32.08
2018-07-26T15:03:27.992Z,33.17
2018-07-26T15:04:27.988Z,32.18
2018-07-26T15:05:27.987Z,32.18
2018-07-26T15:06:27.984Z,31.59
2018-07-26T15:07:27.977Z,32.08
2018-07-26T15:08:27.974Z,32.36
2018-07-26T15:09:27.970Z,31.18
2018-07-26T15:10:27.967Z,30.38
2018-07-26T15:11:27.961Z,32.05
2018-07-26T15:12:27.959Z,31.56
2018-07-26T15:13:27.954Z,31.05
2018-07-26T15:14:27.950Z,32.23
2018-07-26T15:15:27.946Z,32.23
2018-07-26T15:16:27.942Z,32.14
2018-07-26T15:17:27.938Z,31.94
2018-07-26T15:18:27.935Z,31.94
2018-07-26T15:19:27.931Z,30.76
2018-07-26T15:20:27.984Z,31.94
2018-07-26T15:21:27.925Z,31.15
2018-07-26T15:22:27.921Z,32.12
2018-07-26T15:23:27.916Z,32.04
2018-07-26T15:24:27.981Z,33.70
2018-07-26T15:25:27.911Z,34.89
2018-07-26T15:26:27.902Z,34.10
2018-07-26T15:27:27.899Z,33.51
2018-07-26T15:28:27.897Z,32.33
2018-07-26T15:29:27.990Z,33.43
2018-07-26T15:30:27.886Z,32.84
2018-07-26T15:31:27.882Z,33.53
2018-07-26T15:32:27.977Z,32.45
2018-07-26T15:33:27.874Z,33.33
2018-07-26T15:34:27.870Z,32.93
2018-07-26T15:35:27.880Z,33.23
2018-07-26T15:36:27.861Z,31.84
2018-07-26T15:37:27.868Z,33.02
2018-07-26T15:38:27.853Z,31.25
2018-07-26T15:39:27.853Z,30.76
2018-07-26T15:40:27.846Z,33.69
2018-07-26T15:41:27.861Z,34.18
2018-07-26T15:42:27.840Z,31.92
2018-07-26T15:43:27.832Z,32.90
2018-07-26T15:44:27.830Z,32.21
2018-07-26T15:45:27.823Z,33.69
2018-07-26T15:46:27.820Z,31.82
2018-07-26T15:47:27.819Z,33.77
2018-07-26T15:48:27.810Z,32.40
2018-07-26T15:49:27.807Z,32.89
2018-07-26T15:50:27.802Z,33.18
2018-07-26T15:51:27.885Z,34.05
2018-07-26T15:52:27.793Z,35.13
2018-07-26T15:53:27.789Z,34.15
2018-07-26T15:54:27.785Z,32.09
2018-07-26T15:55:27.789Z,34.54
2018-07-26T15:56:27.776Z,35.23
2018-07-26T15:57:27.774Z,34.64
2018-07-26T15:58:27.768Z,33.95
2018-07-26T15:59:27.762Z,35.74
2018-07-26T16:00:27.759Z,34.34
2018-07-26T16:01:27.754Z,33.26
2018-07-26T16:02:27.753Z,34.25
2018-07-26T16:03:27.750Z,35.23
2018-07-26T16:04:27.740Z,35.23
2018-07-26T16:05:27.737Z,36.01
2018-07-26T16:06:27.734Z,37.38
2018-07-26T16:07:27.727Z,35.03
2018-07-26T16:08:27.724Z,35.70
2018-07-26T16:09:27.723Z,34.42
2018-07-26T16:10:27.715Z,36.09
2018-07-26T16:11:27.710Z,35.99
2018-07-26T16:12:27.712Z,36.39
2018-07-26T16:13:27.704Z,36.30
2018-07-26T16:14:27.697Z,35.13
2018-07-26T16:15:27.699Z,35.23
2018-07-26T16:16:27.691Z,37.07
2018-07-26T16:17:27.735Z,35.50
2018-07-26T16:18:27.678Z,34.52
2018-07-26T16:19:27.673Z,35.99
2018-07-26T16:20:27.672Z,35.72
2018-07-26T16:24:05.299Z,35.80
2018-07-26T16:25:05.294Z,37.07
2018-07-26T16:26:05.286Z,35.99
2018-07-26T16:27:05.287Z,36.58
2018-07-26T16:28:05.278Z,35.89
2018-07-26T16:29:05.385Z,36.27
2018-07-26T16:30:05.269Z,36.86
2018-07-26T16:31:05.267Z,36.86
2018-07-26T16:32:05.257Z,37.74
2018-07-26T16:33:05.254Z,37.25
2018-07-26T16:34:05.277Z,37.45
2018-07-26T16:35:05.254Z,36.57
2018-07-26T16:36:05.249Z,37.35
2018-07-26T16:37:05.244Z,37.05
2018-07-26T16:38:05.238Z,36.86
2018-07-26T16:39:05.234Z,36.27
2018-07-26T16:40:05.293Z,37.84
2018-07-26T16:41:05.214Z,38.41
2018-07-26T16:42:05.213Z,37.43
2018-07-26T16:43:05.207Z,38.31
2018-07-26T16:44:05.202Z,37.04
2018-07-26T16:45:05.202Z,36.94
2018-07-26T16:46:05.197Z,37.04
2018-07-26T16:47:05.191Z,39.09
2018-07-26T16:48:05.183Z,37.82
2018-07-26T16:49:05.178Z,38.51
2018-07-26T16:50:05.173Z,37.73
2018-07-26T16:51:05.170Z,37.13
2018-07-26T16:52:05.167Z,37.02
2018-07-26T16:53:05.167Z,36.24
2018-07-26T16:54:05.156Z,36.53
2018-07-26T16:55:05.148Z,37.02
2018-07-26T16:56:05.149Z,37.31
2018-07-26T16:57:05.139Z,36.71
2018-07-26T16:58:05.133Z,38.76
2018-07-26T16:59:05.133Z,39.54
2018-07-26T17:00:05.129Z,37.59
2018-07-26T17:01:05.126Z,37.49
2018-07-26T17:02:05.114Z,38.76
2018-07-26T17:03:05.110Z,39.74
2018-07-26T17:04:05.113Z,38.57
2018-07-26T17:05:05.098Z,38.26
2018-07-26T17:06:05.095Z,39.43
2018-07-26T17:07:05.090Z,39.53
2018-07-26T17:08:05.084Z,38.35
2018-07-26T17:09:05.081Z,40.11
2018-07-26T17:10:05.077Z,39.92
2018-07-26T17:11:05.072Z,40.11
2018-07-26T17:12:05.074Z,40.60
2018-07-26T17:13:05.060Z,39.43
2018-07-26T17:14:05.055Z,40.78
2018-07-26T17:15:05.049Z,40.68
2018-07-26T17:16:05.043Z,39.61
2018-07-26T17:17:05.039Z,39.80
2018-07-26T17:18:05.033Z,39.90
2018-07-26T17:19:05.085Z,39.61
2018-07-26T17:20:05.025Z,40.68
2018-07-26T17:21:05.017Z,41.56
2018-07-26T17:22:05.011Z,40.97
2018-07-26T17:23:05.007Z,40.19
2018-07-26T17:24:04.999Z,42.25
2018-07-26T17:25:05.013Z,40.09
2018-07-26T17:26:04.991Z,39.98
2018-07-26T17:27:04.988Z,41.54
2018-07-26T17:28:04.984Z,41.44
2018-07-26T17:29:05.008Z,41.54
2018-07-26T17:30:04.973Z,40.47
2018-07-26T17:31:04.964Z,39.59
2018-07-26T17:32:04.961Z,40.86
2018-07-26T17:33:04.956Z,40.76
2018-07-26T17:34:04.947Z,40.76
2018-07-26T17:35:04.947Z,40.66
2018-07-26T17:36:04.944Z,40.64
2018-07-26T17:37:04.941Z,40.86
2018-07-26T17:38:04.925Z,41.83
2018-07-26T17:39:04.919Z,40.64
2018-07-26T17:40:04.970Z,40.06
2018-07-26T17:41:04.920Z,39.86
2018-07-26T17:42:04.922Z,40.55
2018-07-26T17:43:04.893Z,44.65
2018-07-26T17:44:04.899Z,44.74
2018-07-26T17:45:04.915Z,42.77
2018-07-26T17:46:04.883Z,42.50
2018-07-26T17:47:04.873Z,43.57
2018-07-26T17:48:04.877Z,46.11
2018-07-26T17:49:04.863Z,42.48
2018-07-26T17:50:04.859Z,42.29
2018-07-26T17:51:04.903Z,44.92
2018-07-26T17:52:04.850Z,45.02
2018-07-26T17:53:04.839Z,44.92
2018-07-26T17:54:04.835Z,43.16
2018-07-26T17:55:04.832Z,43.55
2018-07-26T17:56:04.822Z,43.75
2018-07-26T17:57:04.820Z,42.87
2018-07-26T17:58:04.808Z,43.26
2018-07-26T17:59:04.809Z,44.43
2018-07-26T18:00:04.801Z,44.73
2018-07-26T18:01:04.797Z,44.92
2018-07-26T18:02:04.787Z,47.27
2018-07-26T18:03:04.787Z,44.90
2018-07-26T18:04:04.778Z,42.75
2018-07-26T18:05:04.778Z,43.14
2018-07-26T18:06:04.766Z,43.73
2018-07-26T18:07:04.759Z,43.92
2018-07-26T18:08:04.752Z,43.92
2018-07-26T18:09:04.755Z,44.70
2018-07-26T18:10:04.751Z,44.80
2018-07-26T18:11:04.739Z,44.51
2018-07-26T18:12:04.735Z,43.24
2018-07-26T18:13:04.720Z,43.12
2018-07-26T18:14:04.719Z,43.99
2018-07-26T18:15:04.717Z,43.90
2018-07-26T18:16:04.727Z,43.90
2018-07-26T18:17:04.698Z,44.58
2018-07-26T18:18:04.696Z,44.78
2018-07-26T18:19:04.694Z,45.07
2018-07-26T18:20:04.679Z,45.26
2018-07-26T18:21:04.674Z,45.17